Time;durP1;ratioP1;P1;durP2;ratioP2;P2;SDS_P1;SDS_P2;PMS_P1;PMS_P2;Temp;Humidity;BMP_temperature;BMP_pressure;BME280_temperature;BME280_humidity;BME280_pressure;Samples;Min_cycle;Max_cycle;Signal;HPM_P1;HPM_P2
2022/09/13 00:00:53;;;;;;;24.58;15.68;;;17.40;1.00;;;;;;4986772;28;20034;-85
2022/09/13 00:03:19;;;;;;;25.95;17.90;;;17.20;1.00;;;;;;4986314;28;20145;-85
2022/09/13 00:05:45;;;;;;;33.58;20.35;;;17.10;1.00;;;;;;4964731;28;20081;-85
2022/09/13 00:08:11;;;;;;;39.00;22.80;;;17.40;1.00;;;;;;4986082;28;20050;-85
2022/09/13 00:10:39;;;;;;;43.10;25.02;;;17.30;1.00;;;;;;4985695;28;20038;-85
2022/09/13 00:13:07;;;;;;;44.35;26.70;;;17.30;1.00;;;;;;4986528;28;20037;-85
2022/09/13 00:15:33;;;;;;;47.13;27.90;;;16.90;1.00;;;;;;4969742;28;20476;-83
2022/09/13 00:17:59;;;;;;;64.28;33.47;;;17.40;1.00;;;;;;4981675;28;20132;-85
2022/09/13 00:20:24;;;;;;;47.40;28.20;;;17.40;1.00;;;;;;4982616;28;20046;-83
2022/09/13 00:22:50;;;;;;;52.63;30.55;;;17.20;1.00;;;;;;4969713;28;20046;-84
2022/09/13 00:25:17;;;;;;;51.72;28.38;;;17.50;1.00;;;;;;4969611;28;20460;-85
2022/09/13 00:27:43;;;;;;;47.97;27.98;;;17.80;1.00;;;;;;4979084;28;20351;-86
2022/09/13 00:30:11;;;;;;;53.50;31.23;;;17.30;1.00;;;;;;4969788;28;20042;-87
2022/09/13 00:32:37;;;;;;;48.47;29.77;;;17.40;1.00;;;;;;4978707;28;20096;-85
2022/09/13 00:35:04;;;;;;;47.85;28.60;;;17.90;1.00;;;;;;4969243;28;20667;-85
2022/09/13 00:37:32;;;;;;;54.72;30.92;;;17.50;1.00;;;;;;4958572;28;20046;-86
2022/09/13 00:39:58;;;;;;;53.13;29.98;;;17.50;1.00;;;;;;4965764;28;20054;-86
2022/09/13 00:42:25;;;;;;;50.20;30.63;;;17.50;1.00;;;;;;4958250;28;20093;-83
2022/09/13 00:45:09;;;;;;;54.30;29.98;;;17.40;1.00;;;;;;4969672;28;20096;-87
2022/09/13 00:47:47;;;;;;;56.83;31.63;;;17.50;1.00;;;;;;4985834;28;20046;-86
2022/09/13 00:50:32;;;;;;;57.40;33.95;;;17.20;1.00;;;;;;4996831;28;20026;-84
2022/09/13 00:52:59;;;;;;;54.90;32.47;;;17.20;1.00;;;;;;4994794;28;20037;-86
2022/09/13 00:55:59;;;;;;;48.60;27.08;;;17.30;1.00;;;;;;4970809;28;20556;-85
2022/09/13 00:58:26;;;;;;;42.42;24.83;;;17.90;1.00;;;;;;4967885;28;20053;-83
2022/09/13 01:00:56;;;;;;;38.78;24.25;;;17.90;1.00;;;;;;4966881;28;20041;-87
2022/09/13 01:03:26;;;;;;;34.22;23.20;;;17.70;1.00;;;;;;4971335;28;20046;-86
2022/09/13 01:05:59;;;;;;;34.22;23.63;;;17.50;1.00;;;;;;4998882;28;20050;-85
2022/09/13 01:08:26;;;;;;;37.97;24.33;;;17.60;1.00;;;;;;4967344;28;20054;-83
2022/09/13 01:10:53;;;;;;;41.72;26.75;;;17.00;1.00;;;;;;4969627;28;20139;-86
2022/09/13 01:13:22;;;;;;;36.53;24.48;;;17.50;1.00;;;;;;4985289;28;20045;-85
2022/09/13 01:15:48;;;;;;;35.25;23.33;;;17.50;1.00;;;;;;5003831;28;20046;-86
2022/09/13 01:18:14;;;;;;;39.15;24.98;;;17.70;1.00;;;;;;4968957;28;20496;-86
2022/09/13 01:21:20;;;;;;;35.58;24.10;;;17.20;1.00;;;;;;5003602;28;20052;-86
2022/09/13 01:23:51;;;;;;;38.60;24.90;;;17.80;1.00;;;;;;4977517;28;20042;-85
2022/09/13 01:26:36;;;;;;;30.35;22.77;;;17.30;1.00;;;;;;4988770;28;20037;-86
2022/09/13 01:29:42;;;;;;;35.45;22.63;;;17.60;1.00;;;;;;4968150;28;20042;-84
2022/09/13 01:32:20;;;;;;;39.30;22.95;;;18.10;1.00;;;;;;4947244;28;20111;-87
2022/09/13 01:34:54;;;;;;;36.75;23.10;;;17.10;1.00;;;;;;4968105;28;20046;-87
2022/09/13 01:37:42;;;;;;;38.50;23.75;;;17.50;1.00;;;;;;4977609;28;20125;-86
2022/09/13 01:40:17;;;;;;;37.17;24.63;;;17.50;1.00;;;;;;4980038;28;20412;-87
2022/09/13 01:43:03;;;;;;;34.20;23.67;;;17.80;1.00;;;;;;4984053;28;20120;-86
2022/09/13 01:45:47;;;;;;;36.38;21.98;;;18.30;1.00;;;;;;4972336;28;20046;-85
2022/09/13 01:48:40;;;;;;;35.80;23.73;;;17.50;1.00;;;;;;4984417;28;20038;-86
2022/09/13 01:51:15;;;;;;;38.10;23.63;;;17.10;1.00;;;;;;4961826;28;20469;-86
2022/09/13 01:54:14;;;;;;;36.63;23.80;;;17.90;1.00;;;;;;4963772;28;20037;-86
2022/09/13 01:56:59;;;;;;;35.13;22.77;;;17.30;1.00;;;;;;4999578;28;20053;-86
2022/09/13 01:59:42;;;;;;;33.90;22.23;;;18.30;1.00;;;;;;4987907;28;20566;-86
2022/09/13 02:02:18;;;;;;;41.28;25.60;;;17.70;1.00;;;;;;4978051;28;20564;-86
2022/09/13 02:04:52;;;;;;;36.92;24.55;;;17.50;1.00;;;;;;4961903;28;20224;-85
2022/09/13 02:07:20;;;;;;;31.67;22.33;;;17.50;1.00;;;;;;4966278;28;20513;-85
2022/09/13 02:09:50;;;;;;;37.92;24.02;;;17.30;1.00;;;;;;4986718;28;20054;-86
2022/09/13 02:12:23;;;;;;;32.30;23.35;;;18.40;1.00;;;;;;4972330;28;20104;-86
2022/09/13 02:14:59;;;;;;;30.25;23.00;;;17.20;1.00;;;;;;4985679;28;20265;-86
2022/09/13 02:17:29;;;;;;;27.60;21.58;;;17.60;1.00;;;;;;4987892;28;20092;-84
2022/09/13 02:26:45;;;;;;;7.47;2.75;;;;;;;;;;4991898;22;20111;-61
2022/09/13 02:29:13;;;;;;;6.53;2.40;;;;;;;;;;5020349;28;20045;-62
2022/09/13 02:31:46;;;;;;;5.72;1.77;;;;;;;;;;5017073;28;20037;-61
2022/09/13 02:34:20;;;;;;;5.30;2.00;;;17.30;1.00;;;;;;5032865;28;20042;-60
2022/09/13 02:36:48;;;;;;;4.40;1.58;;;;;;;;;;4996167;28;20073;-61
2022/09/13 02:39:17;;;;;;;4.85;1.45;;;17.40;1.00;;;;;;5014237;28;20116;-60
2022/09/13 02:41:57;;;;;;;5.93;1.60;;;17.30;1.00;;;;;;5032155;28;20037;-60
2022/09/13 02:44:33;;;;;;;7.13;1.90;;;;;;;;;;5020012;28;20030;-60
2022/09/13 02:47:09;;;;;;;7.20;1.83;;;17.20;1.00;;;;;;5030604;28;20080;-60
2022/09/13 02:49:55;;;;;;;7.97;2.13;;;17.00;1.00;;;;;;5030165;28;20041;-61
2022/09/13 02:52:30;;;;;;;6.45;2.13;;;;;;;;;;5031849;28;20042;-62
2022/09/13 02:55:11;;;;;;;4.53;1.80;;;17.20;1.00;;;;;;5014553;28;20095;-63
2022/09/13 02:57:39;;;;;;;8.10;2.08;;;16.40;1.00;;;;;;5031206;28;20041;-63
2022/09/13 03:00:05;;;;;;;6.60;2.08;;;16.80;1.00;;;;;;5028570;28;20038;-63
2022/09/13 03:02:32;;;;;;;7.03;2.22;;;17.00;1.00;;;;;;5031703;28;20049;-62
2022/09/13 03:05:00;;;;;;;6.57;2.38;;;16.70;1.00;;;;;;5032164;28;20037;-62
2022/09/13 03:07:26;;;;;;;8.02;2.20;;;16.70;1.00;;;;;;5029028;28;20068;-62
2022/09/13 03:10:04;;;;;;;7.50;1.90;;;16.90;1.00;;;;;;5017698;28;20073;-61
2022/09/13 03:12:40;;;;;;;5.90;2.00;;;;;;;;;;5028819;28;20108;-63
2022/09/13 03:15:29;;;;;;;8.30;2.08;;;16.80;1.00;;;;;;5025797;28;20033;-63
2022/09/13 03:18:07;;;;;;;7.55;2.13;;;;;;;;;;5031114;28;20064;-62
2022/09/13 03:20:52;;;;;;;9.27;2.10;;;17.10;1.00;;;;;;5030942;28;20103;-62
2022/09/13 03:23:27;;;;;;;6.57;1.90;;;;;;;;;;5012359;28;20047;-64
2022/09/13 03:26:12;;;;;;;6.07;2.00;;;16.60;1.00;;;;;;5031509;28;20041;-63
2022/09/13 03:28:55;;;;;;;6.70;1.90;;;16.40;1.00;;;;;;5016369;28;20048;-63
2022/09/13 03:31:28;;;;;;;6.88;2.10;;;;;;;;;;5029660;28;20030;-62
2022/09/13 03:34:00;;;;;;;6.82;2.20;;;17.20;1.00;;;;;;5031332;28;20407;-62
2022/09/13 03:36:35;;;;;;;9.98;1.67;;;16.70;1.00;;;;;;5029574;28;20030;-62
2022/09/13 03:39:06;;;;;;;5.90;1.88;;;;;;;;;;5001456;28;20098;-62
2022/09/13 03:41:39;;;;;;;6.25;1.50;;;;;;;;;;5028416;28;20037;-61
2022/09/13 03:44:09;;;;;;;9.20;2.08;;;17.20;1.00;;;;;;5020844;28;20049;-62
2022/09/13 03:46:40;;;;;;;8.07;1.80;;;;;;;;;;5028497;28;20045;-61
2022/09/13 03:49:17;;;;;;;6.22;1.63;;;;;;;;;;5031256;28;20131;-63
2022/09/13 03:51:48;;;;;;;7.47;2.38;;;;;;;;;;5026839;28;20060;-61
2022/09/13 03:54:31;;;;;;;7.03;2.40;;;16.60;1.00;;;;;;5031319;28;20037;-62
2022/09/13 03:57:19;;;;;;;6.15;2.35;;;;;;;;;;5023258;28;20104;-62
2022/09/13 03:59:53;;;;;;;7.40;2.20;;;17.00;1.00;;;;;;5026129;28;20403;-61
2022/09/13 04:02:22;;;;;;;9.13;2.10;;;16.90;1.00;;;;;;5031275;28;20369;-63
2022/09/13 04:04:48;;;;;;;5.88;2.00;;;;;;;;;;5017384;28;20232;-63
2022/09/13 04:07:17;;;;;;;4.90;2.03;;;16.80;1.00;;;;;;5029874;28;20088;-62
2022/09/13 04:09:42;;;;;;;7.60;2.38;;;16.10;1.00;;;;;;5024845;28;20029;-62
2022/09/13 04:12:12;;;;;;;8.10;2.63;;;16.10;1.00;;;;;;5027755;28;20609;-61
2022/09/13 04:14:38;;;;;;;6.93;2.60;;;16.80;1.00;;;;;;5030000;28;20329;-63
2022/09/13 04:17:04;;;;;;;6.55;2.60;;;16.70;1.00;;;;;;5030098;28;20497;-63
2022/09/13 04:19:30;;;;;;;7.28;2.58;;;16.70;1.00;;;;;;5029619;28;20037;-63
2022/09/13 04:21:56;;;;;;;10.05;2.38;;;17.00;1.00;;;;;;5017777;28;20048;-63
2022/09/13 04:24:26;;;;;;;10.30;2.95;;;16.30;1.00;;;;;;5029175;28;20403;-63
2022/09/13 04:26:53;;;;;;;7.75;2.03;;;17.40;1.00;;;;;;5029837;28;20445;-62
2022/09/13 04:29:20;;;;;;;11.10;3.15;;;;;;;;;;5015407;28;20373;-63
2022/09/13 04:31:46;;;;;;;8.88;3.10;;;16.70;1.00;;;;;;5018856;22;20056;-67
2022/09/13 04:34:12;;;;;;;6.57;2.50;;;;;;;;;;5022196;28;20046;-67
2022/09/13 04:36:38;;;;;;;7.75;2.88;;;;;;;;;;5011526;28;20044;-67
2022/09/13 04:39:04;;;;;;;6.65;2.60;;;17.20;1.00;;;;;;5002488;28;20042;-67
2022/09/13 04:41:32;;;;;;;7.50;2.92;;;;;;;;;;5001756;28;20045;-67
2022/09/13 04:43:58;;;;;;;9.30;2.90;;;;;;;;;;4999239;28;20042;-67
2022/09/13 04:46:23;;;;;;;6.93;2.60;;;16.80;1.00;;;;;;5002845;28;20037;-67
2022/09/13 04:48:50;;;;;;;8.23;3.08;;;16.20;1.00;;;;;;5002218;28;20116;-67
2022/09/13 04:51:16;;;;;;;9.98;3.25;;;17.00;1.00;;;;;;5004840;28;20033;-67
2022/09/13 04:53:43;;;;;;;9.68;2.80;;;;;;;;;;4998322;28;20567;-67
2022/09/13 04:56:09;;;;;;;9.82;3.15;;;16.50;1.00;;;;;;4991187;28;20045;-67
2022/09/13 04:58:36;;;;;;;8.90;3.03;;;;;;;;;;4997920;28;20042;-67
2022/09/13 05:01:06;;;;;;;9.18;4.40;;;;;;;;;;5006339;28;20039;-67
2022/09/13 05:03:33;;;;;;;8.23;3.58;;;16.30;1.00;;;;;;4990722;28;20518;-67
2022/09/13 05:06:24;;;;;;;10.10;3.35;;;17.20;1.00;;;;;;4995168;28;20555;-67
2022/09/13 05:08:54;;;;;;;9.88;3.13;;;;;;;;;;4994835;28;20042;-67
2022/09/13 05:11:24;;;;;;;14.48;4.03;;;;;;;;;;4994237;28;20121;-67
2022/09/13 05:13:54;;;;;;;6.50;2.95;;;;;;;;;;4999853;28;20085;-67
2022/09/13 05:16:22;;;;;;;9.65;3.60;;;16.80;1.00;;;;;;4994870;28;20093;-67
2022/09/13 05:18:48;;;;;;;7.40;3.33;;;16.10;1.00;;;;;;4998102;28;20050;-67
2022/09/13 05:21:13;;;;;;;8.32;3.03;;;17.00;1.00;;;;;;5006966;28;20385;-67
2022/09/13 05:23:39;;;;;;;12.32;3.97;;;;;;;;;;4996133;28;20072;-67
2022/09/13 05:26:06;;;;;;;9.77;3.42;;;16.60;1.00;;;;;;5014840;28;20042;-67
2022/09/13 05:28:33;;;;;;;10.00;3.70;;;;;;;;;;4995365;28;20038;-67
2022/09/13 05:31:00;;;;;;;7.63;3.58;;;;;;;;;;5013359;28;20038;-67
2022/09/13 05:33:28;;;;;;;8.40;3.60;;;17.10;1.00;;;;;;5004497;28;20059;-67
2022/09/13 05:35:54;;;;;;;11.18;3.85;;;16.50;1.00;;;;;;5006472;28;20088;-67
2022/09/13 05:38:21;;;;;;;11.80;3.53;;;;;;;;;;4997512;28;20038;-67
2022/09/13 05:40:47;;;;;;;8.75;4.05;;;16.80;1.00;;;;;;4994566;28;20057;-67
2022/09/13 05:43:13;;;;;;;9.95;3.80;;;16.90;1.00;;;;;;5008158;28;20411;-67
2022/09/13 05:45:40;;;;;;;7.93;3.10;;;16.70;1.00;;;;;;4994093;28;20043;-67
2022/09/13 05:48:05;;;;;;;13.43;3.50;;;16.70;1.00;;;;;;4999379;28;20113;-67
2022/09/13 05:50:35;;;;;;;12.82;3.17;;;15.90;1.00;;;;;;5007285;28;20067;-67
2022/09/13 05:53:01;;;;;;;8.65;3.63;;;;;;;;;;4994264;28;20108;-67
2022/09/13 05:55:27;;;;;;;15.32;4.05;;;16.50;1.00;;;;;;5006993;28;20033;-67
2022/09/13 05:57:53;;;;;;;8.60;2.72;;;;;;;;;;5005401;28;20079;-67
2022/09/13 06:00:19;;;;;;;9.63;2.55;;;16.60;1.00;;;;;;5002405;28;20042;-67
2022/09/13 06:02:44;;;;;;;12.50;2.92;;;16.80;1.00;;;;;;4994333;28;20041;-67
2022/09/13 06:05:10;;;;;;;7.15;2.08;;;16.30;1.00;;;;;;5003148;28;20241;-67
2022/09/13 06:07:39;;;;;;;10.68;2.53;;;16.50;1.00;;;;;;5005554;28;20056;-67
2022/09/13 06:10:05;;;;;;;8.88;2.22;;;15.80;1.00;;;;;;4999342;28;20050;-67
2022/09/13 06:12:31;;;;;;;8.48;1.88;;;15.60;1.00;;;;;;5005829;28;20037;-67
2022/09/13 06:14:57;;;;;;;11.85;2.00;;;15.80;1.00;;;;;;5005214;28;20041;-67
2022/09/13 06:17:22;;;;;;;6.65;1.70;;;16.00;1.00;;;;;;5013123;28;20030;-67
2022/09/13 06:19:48;;;;;;;6.88;1.67;;;15.40;1.00;;;;;;5005449;28;20045;-67
2022/09/13 06:22:13;;;;;;;6.63;1.70;;;15.60;1.00;;;;;;5003420;28;20391;-67
2022/09/13 06:24:39;;;;;;;8.48;2.20;;;;;;;;;;5007616;28;20034;-67
2022/09/13 06:27:06;;;;;;;7.07;1.70;;;;;;;;;;5000666;28;20034;-66
2022/09/13 06:29:31;;;;;;;8.77;1.90;;;15.80;1.00;;;;;;4991994;28;20129;-66
2022/09/13 06:31:57;;;;;;;7.90;1.80;;;16.00;1.00;;;;;;4997386;28;20542;-66
2022/09/13 06:34:23;;;;;;;7.75;1.75;;;15.50;1.00;;;;;;5001926;28;20121;-66
2022/09/13 06:36:48;;;;;;;7.50;1.92;;;15.80;1.00;;;;;;4995462;28;20030;-66
2022/09/13 06:39:14;;;;;;;7.07;1.70;;;15.70;1.00;;;;;;5004986;28;20098;-66
2022/09/13 06:41:40;;;;;;;5.70;1.48;;;16.00;1.00;;;;;;5003015;28;20361;-66
2022/09/13 06:44:05;;;;;;;6.95;1.48;;;15.70;1.00;;;;;;4998412;28;20483;-66
2022/09/13 06:46:33;;;;;;;6.75;1.60;;;;;;;;;;4996043;28;20424;-66
2022/09/13 06:49:01;;;;;;;8.32;1.67;;;15.50;1.00;;;;;;5001233;28;20451;-66
2022/09/13 06:51:28;;;;;;;5.15;1.75;;;;;;;;;;5001154;28;20034;-66
2022/09/13 06:53:55;;;;;;;5.18;1.50;;;16.20;1.00;;;;;;4997573;28;20046;-66
2022/09/13 06:56:29;;;;;;;5.22;1.50;;;;;;;;;;5008712;28;20040;-66
2022/09/13 06:58:56;;;;;;;9.98;1.70;;;;;;;;;;5000728;28;20042;-66
2022/09/13 07:01:25;;;;;;;8.73;1.77;;;15.70;1.00;;;;;;5003103;28;20038;-66
2022/09/13 07:03:53;;;;;;;7.85;1.95;;;16.00;1.00;;;;;;5003212;28;20042;-66
2022/09/13 07:06:21;;;;;;;4.82;1.50;;;;;;;;;;5004385;28;20114;-66
2022/09/13 07:08:48;;;;;;;7.20;1.73;;;16.10;1.00;;;;;;5002813;28;20081;-66
2022/09/13 07:11:17;;;;;;;12.95;2.00;;;15.30;1.00;;;;;;5006680;28;20038;-66
2022/09/13 07:13:48;;;;;;;5.78;1.77;;;;;;;;;;5000978;28;20451;-66
2022/09/13 07:16:13;;;;;;;6.18;1.52;;;15.80;1.00;;;;;;4994663;28;20049;-66
2022/09/13 07:18:39;;;;;;;7.80;1.95;;;16.00;1.00;;;;;;5006742;28;20033;-66
2022/09/13 07:21:09;;;;;;;8.85;1.88;;;16.30;1.00;;;;;;4997325;28;20120;-66
2022/09/13 07:23:36;;;;;;;7.47;1.80;;;;;;;;;;4992484;28;20129;-66
2022/09/13 07:26:04;;;;;;;8.13;1.85;;;16.10;1.00;;;;;;4997322;28;20562;-66
2022/09/13 07:28:50;;;;;;;6.57;1.70;;;;;;;;;;5003436;28;20035;-66
2022/09/13 07:31:28;;;;;;;6.13;1.80;;;16.70;1.00;;;;;;5006028;28;20037;-66
2022/09/13 07:33:56;;;;;;;6.82;1.77;;;;;;;;;;5007902;28;20030;-66
2022/09/13 07:36:23;;;;;;;7.07;1.60;;;16.40;1.00;;;;;;4998038;28;20049;-66
2022/09/13 07:38:49;;;;;;;7.13;1.52;;;;;;;;;;5007561;28;20034;-66
2022/09/13 07:41:17;;;;;;;6.82;1.45;;;16.00;1.00;;;;;;5011223;28;20049;-66
2022/09/13 07:43:43;;;;;;;4.75;1.45;;;16.50;1.00;;;;;;4995729;28;20053;-66
2022/09/13 07:46:20;;;;;;;7.65;1.98;;;16.70;1.00;;;;;;4996011;28;20073;-66
2022/09/13 07:48:48;;;;;;;7.38;1.52;;;16.60;1.00;;;;;;4998388;28;20038;-66
2022/09/13 07:51:19;;;;;;;5.95;1.40;;;;;;;;;;4985202;28;20498;-65
2022/09/13 07:53:46;;;;;;;5.50;1.38;;;;;;;;;;4994552;28;20046;-65
2022/09/13 07:56:20;;;;;;;6.60;1.30;;;17.00;1.00;;;;;;4992898;28;20030;-66
2022/09/13 07:58:46;;;;;;;;;;;;;;;;;;4994481;28;20034;-66
2022/09/13 08:01:15;;;;;;;5.65;1.30;;;;;;;;;;4993232;28;20402;-65
2022/09/13 08:03:41;;;;;;;4.95;1.20;;;16.50;1.00;;;;;;5001763;28;20523;-65
2022/09/13 08:06:07;;;;;;;5.93;1.33;;;16.40;1.00;;;;;;4998281;28;20038;-65
2022/09/13 08:08:35;;;;;;;6.63;1.33;;;16.80;1.00;;;;;;4991261;28;20050;-65
2022/09/13 08:11:01;;;;;;;5.35;1.35;;;;;;;;;;4991693;28;20037;-65
2022/09/13 08:13:28;;;;;;;6.53;1.20;;;;;;;;;;4973684;28;20104;-65
2022/09/13 08:15:55;;;;;;;5.25;1.30;;;16.10;1.00;;;;;;4991949;28;20052;-65
2022/09/13 08:20:57;;;;;;;6.38;1.30;;;16.70;1.00;;;;;;5009223;28;20417;-59
2022/09/13 08:23:23;;;;;;;6.37;1.40;;;;;;;;;;5003328;28;20056;-60
2022/09/13 08:25:49;;;;;;;9.80;1.65;;;16.60;1.00;;;;;;4975182;28;20472;-59
2022/09/13 08:28:16;;;;;;;5.90;1.70;;;16.50;1.00;;;;;;4982666;28;20109;-59
2022/09/13 08:30:45;;;;;;;4.85;1.20;;;16.80;1.00;;;;;;4975082;28;20046;-60
2022/09/13 08:33:11;;;;;;;5.95;1.30;;;16.40;1.00;;;;;;4983553;28;20088;-59
2022/09/13 08:35:37;;;;;;;6.00;1.30;;;15.80;1.00;;;;;;4983728;28;20070;-58
2022/09/13 08:38:06;;;;;;;6.45;1.17;;;16.60;1.00;;;;;;4978978;28;20042;-58
2022/09/13 08:40:42;;;;;;;7.07;1.23;;;16.40;1.00;;;;;;4980129;28;20408;-59
2022/09/13 08:43:23;;;;;;;8.02;1.70;;;16.40;1.00;;;;;;4980535;28;20039;-59
2022/09/13 08:46:00;;;;;;;7.45;1.15;;;16.60;1.00;;;;;;4984235;28;20070;-58
2022/09/13 08:48:33;;;;;;;5.65;1.80;;;;;;;;;;4981389;28;20077;-58
2022/09/13 08:51:03;;;;;;;6.13;1.70;;;17.20;1.00;;;;;;4979840;28;20070;-59
2022/09/13 08:53:30;;;;;;;6.18;1.92;;;16.80;1.00;;;;;;4970709;28;20050;-59
2022/09/13 08:56:22;;;;;;;5.13;1.30;;;16.80;1.00;;;;;;4987627;28;20437;-59
2022/09/13 08:59:25;;;;;;;7.85;1.50;;;17.80;1.00;;;;;;4981334;28;20047;-60
2022/09/13 09:02:38;;;;;;;8.65;1.42;;;16.70;1.00;;;;;;4979990;28;20049;-59
2022/09/13 09:05:19;;;;;;;5.38;1.20;;;17.30;99.90;;;;;;4983449;28;20042;-59
2022/09/13 09:08:06;;;;;;;7.18;1.58;;;17.50;99.90;;;;;;4977963;28;20286;-59
2022/09/13 09:10:44;;;;;;;5.50;1.50;;;18.00;99.90;;;;;;4979981;28;20094;-59
2022/09/13 09:13:13;;;;;;;4.97;1.15;;;18.20;99.90;;;;;;4982547;28;20043;-60
2022/09/13 09:15:43;;;;;;;7.22;1.40;;;18.90;99.90;;;;;;4972386;28;20071;-60
2022/09/13 09:18:22;;;;;;;6.28;1.88;;;17.80;99.90;;;;;;4982611;28;20034;-59
2022/09/13 09:20:48;;;;;;;7.28;1.58;;;18.80;99.90;;;;;;4981854;28;20527;-60
2022/09/13 09:23:18;;;;;;;5.38;1.10;;;18.70;99.90;;;;;;4982231;28;20034;-59
2022/09/13 09:25:45;;;;;;;6.03;1.45;;;19.00;99.90;;;;;;4983321;28;20051;-59
2022/09/13 09:28:13;;;;;;;4.85;1.30;;;18.40;99.90;;;;;;4982597;28;20060;-59
2022/09/13 09:31:27;;;;;;;8.35;1.45;;;18.80;99.90;;;;;;4981748;28;20054;-57
2022/09/13 09:34:21;;;;;;;5.38;1.10;;;18.80;99.90;;;;;;4959573;28;20046;-59
2022/09/13 09:37:18;;;;;;;6.28;1.10;;;18.60;99.90;;;;;;4979743;28;20030;-58
2022/09/13 09:39:44;;;;;;;5.32;1.10;;;18.50;99.90;;;;;;4977121;28;20042;-59
2022/09/13 09:42:17;;;;;;;4.10;1.38;;;18.60;99.90;;;;;;4977348;28;20031;-59
2022/09/13 09:44:52;;;;;;;5.28;1.13;;;17.90;99.90;;;;;;4981757;28;20035;-59
2022/09/13 09:47:31;;;;;;;4.60;1.00;;;18.20;99.90;;;;;;4985281;28;20459;-58
2022/09/13 09:50:11;;;;;;;4.50;1.60;;;18.60;99.90;;;;;;4977098;28;20074;-58
2022/09/13 09:53:14;;;;;;;5.70;1.27;;;18.80;99.90;;;;;;4979686;28;20048;-59
2022/09/13 09:55:44;;;;;;;5.68;1.02;;;19.20;99.90;;;;;;4986441;28;20109;-60
2022/09/13 09:58:15;;;;;;;5.70;1.15;;;18.30;99.90;;;;;;4978583;28;20101;-59
2022/09/13 10:00:55;;;;;;;3.83;1.05;;;19.10;99.90;;;;;;4981204;28;20047;-59
2022/09/13 10:03:27;;;;;;;6.18;1.42;;;18.40;99.90;;;;;;4984067;28;20111;-59
2022/09/13 10:06:17;;;;;;;5.72;1.38;;;18.90;99.90;;;;;;4980896;28;20046;-60
2022/09/13 10:09:07;;;;;;;5.85;1.35;;;19.00;99.90;;;;;;4985164;28;20057;-59
2022/09/13 10:11:56;;;;;;;8.60;2.03;;;18.90;99.90;;;;;;4978827;28;20141;-59
2022/09/13 10:14:45;;;;;;;7.10;1.40;;;19.60;99.90;;;;;;4966123;28;20042;-59
2022/09/13 10:17:23;;;;;;;12.88;1.60;;;19.90;99.90;;;;;;4978363;28;20198;-59
2022/09/13 10:19:57;;;;;;;8.50;1.25;;;19.20;99.90;;;;;;4990559;28;20043;-59
2022/09/13 10:22:24;;;;;;;9.07;1.33;;;18.80;99.90;;;;;;4982169;28;20042;-59
2022/09/13 10:24:50;;;;;;;7.97;1.58;;;19.50;99.90;;;;;;4982836;28;20277;-58
2022/09/13 10:27:47;;;;;;;5.75;1.40;;;20.10;99.90;;;;;;4976533;28;20062;-59
2022/09/13 10:30:46;;;;;;;7.40;1.30;;;20.30;99.90;;;;;;4991036;28;20374;-60
2022/09/13 10:33:39;;;;;;;3.72;1.02;;;19.70;99.90;;;;;;4982091;28;20444;-59
2022/09/13 10:36:15;;;;;;;6.90;1.50;;;19.70;99.90;;;;;;4982824;28;20054;-59
2022/09/13 10:39:12;;;;;;;5.75;1.20;;;20.50;99.90;;;;;;4983070;28;20043;-58
2022/09/13 10:41:44;;;;;;;3.67;1.00;;;20.10;99.90;;;;;;4978595;28;20113;-59
2022/09/13 10:44:51;;;;;;;5.57;1.27;;;20.00;99.90;;;;;;4988034;28;20114;-59
2022/09/13 10:47:33;;;;;;;6.32;1.17;;;20.00;99.90;;;;;;4992637;28;20081;-59
2022/09/13 10:50:17;;;;;;;5.15;1.20;;;19.60;99.90;;;;;;4980203;28;20097;-59
2022/09/13 10:52:57;;;;;;;14.60;1.70;;;20.00;99.90;;;;;;4983476;28;20069;-62
2022/09/13 10:55:35;;;;;;;4.28;1.17;;;19.50;99.90;;;;;;4987150;28;20451;-59
2022/09/13 10:58:01;;;;;;;7.00;1.50;;;19.90;99.90;;;;;;4975568;28;20151;-59
2022/09/13 11:00:45;;;;;;;8.73;2.03;;;20.10;99.90;;;;;;4977849;28;20529;-59
2022/09/13 11:03:36;;;;;;;8.20;1.45;;;20.10;99.90;;;;;;4965295;28;20098;-59
2022/09/13 11:06:14;;;;;;;6.95;1.60;;;21.30;99.90;;;;;;4981138;28;20042;-58
2022/09/13 11:08:45;;;;;;;9.05;1.88;;;20.10;99.90;;;;;;4976929;28;20042;-58
2022/09/13 11:11:23;;;;;;;6.97;1.40;;;20.80;99.90;;;;;;4984768;28;20057;-59
2022/09/13 11:13:57;;;;;;;7.47;1.60;;;20.10;99.90;;;;;;4985164;28;20038;-59
2022/09/13 11:16:33;;;;;;;;;;;20.70;99.90;;;;;;4991251;28;20039;-59
2022/09/13 11:19:36;;;;;;;5.65;1.70;;;21.80;99.90;;;;;;4987395;28;19918;-60
2022/09/13 11:22:29;;;;;;;7.88;1.58;;;21.60;99.90;;;;;;4987080;28;20070;-59
2022/09/13 11:25:22;;;;;;;6.30;1.70;;;20.70;99.90;;;;;;4979215;28;20119;-59
2022/09/13 11:28:06;;;;;;;8.55;1.92;;;20.50;99.90;;;;;;4983145;28;20054;-59
2022/09/13 11:30:45;;;;;;;8.45;1.77;;;20.50;99.90;;;;;;4981637;28;20049;-59
2022/09/13 11:33:28;;;;;;;6.85;1.40;;;20.50;99.90;;;;;;4980780;28;20042;-59
2022/09/13 11:36:10;;;;;;;8.70;2.00;;;21.30;99.90;;;;;;4981318;28;20035;-59
2022/09/13 11:39:00;;;;;;;6.38;1.55;;;21.80;99.90;;;;;;4981925;28;20042;-59
2022/09/13 11:41:53;;;;;;;6.20;1.38;;;21.90;99.90;;;;;;4981180;28;20050;-59
2022/09/13 11:44:39;;;;;;;7.10;1.83;;;21.90;99.90;;;;;;4979725;28;20420;-60
2022/09/13 11:47:18;;;;;;;7.80;1.35;;;22.20;99.90;;;;;;4983045;28;20048;-60
2022/09/13 11:50:05;;;;;;;7.72;1.60;;;22.00;99.90;;;;;;4975843;28;20055;-58
2022/09/13 11:53:07;;;;;;;9.43;1.80;;;21.50;99.90;;;;;;4986131;28;20049;-58
2022/09/13 11:55:36;;;;;;;8.57;1.65;;;22.20;99.90;;;;;;4986606;28;20100;-59
2022/09/13 11:58:07;;;;;;;8.52;1.50;;;22.20;99.90;;;;;;4963375;28;20073;-59
2022/09/13 12:00:42;;;;;;;6.72;1.50;;;22.60;99.90;;;;;;4981515;28;20125;-60
2022/09/13 12:03:35;;;;;;;5.13;1.20;;;22.90;99.90;;;;;;4981533;28;20038;-60
2022/09/13 12:06:09;;;;;;;6.00;1.90;;;23.00;99.90;;;;;;4980823;28;20034;-59
2022/09/13 12:08:39;;;;;;;6.30;1.30;;;24.70;99.90;;;;;;4975931;28;20101;-58
2022/09/13 12:11:17;;;;;;;8.23;2.95;;;26.00;99.90;;;;;;4984055;28;20034;-59
2022/09/13 12:13:55;;;;;;;7.63;1.50;;;26.90;99.90;;;;;;4983066;28;20100;-59
2022/09/13 12:16:39;;;;;;;7.47;1.70;;;27.80;99.90;;;;;;4984108;28;20046;-59
2022/09/13 12:19:14;;;;;;;7.78;1.55;;;27.60;99.90;;;;;;4985385;28;20039;-59
2022/09/13 12:21:44;;;;;;;6.65;1.40;;;28.60;99.90;;;;;;4983605;28;20085;-59
2022/09/13 12:24:40;;;;;;;6.55;1.30;;;28.10;99.90;;;;;;4983867;28;20045;-59
2022/09/13 12:27:27;;;;;;;6.25;1.40;;;27.10;99.90;;;;;;4979941;28;20066;-59
2022/09/13 12:30:01;;;;;;;7.80;1.60;;;26.70;99.90;;;;;;4980404;28;20034;-60
2022/09/13 12:32:30;;;;;;;6.38;1.52;;;27.00;99.90;;;;;;4977501;28;20034;-60
2022/09/13 12:35:05;;;;;;;7.60;1.35;;;27.10;99.90;;;;;;4980614;28;20463;-60
2022/09/13 12:38:11;;;;;;;5.00;1.40;;;27.60;99.90;;;;;;4975777;28;20050;-60
2022/09/13 12:40:53;;;;;;;7.10;1.50;;;27.60;99.90;;;;;;4980299;28;20106;-59
2022/09/13 12:44:01;;;;;;;7.97;1.75;;;27.60;99.90;;;;;;4964239;28;20108;-59
2022/09/13 12:47:00;;;;;;;5.68;1.83;;;27.20;99.90;;;;;;4958408;28;20050;-60
2022/09/13 12:50:08;;;;;;;6.18;1.45;;;28.70;99.90;;;;;;4980530;28;20386;-58
2022/09/13 12:52:48;;;;;;;8.32;1.70;;;30.00;99.90;;;;;;4986600;28;20046;-60
2022/09/13 12:55:34;;;;;;;6.68;1.27;;;29.70;99.90;;;;;;4983839;28;20042;-60
2022/09/13 12:58:18;;;;;;;6.55;1.60;;;31.20;99.90;;;;;;4973533;28;20412;-60
2022/09/13 13:01:04;;;;;;;6.13;1.10;;;31.00;99.90;;;;;;4982605;28;20059;-60
2022/09/13 13:03:34;;;;;;;6.47;1.50;;;30.80;99.90;;;;;;4976275;28;20042;-59
2022/09/13 13:06:32;;;;;;;5.38;1.42;;;31.60;99.90;;;;;;4991206;28;20053;-60
2022/09/13 13:09:06;;;;;;;6.38;1.65;;;32.50;99.90;;;;;;4969560;28;20050;-58
2022/09/13 13:11:50;;;;;;;7.90;1.42;;;32.00;99.90;;;;;;4983010;28;20042;-60
2022/09/13 13:14:28;;;;;;;5.43;1.35;;;32.00;99.90;;;;;;4984291;28;20050;-60
2022/09/13 13:17:32;;;;;;;6.63;1.60;;;30.90;99.90;;;;;;4987577;28;20039;-60
2022/09/13 13:19:58;;;;;;;8.43;1.40;;;31.20;99.90;;;;;;4982686;28;20537;-60
2022/09/13 13:22:43;;;;;;;6.28;1.50;;;31.60;99.90;;;;;;4983064;28;20285;-59
2022/09/13 13:25:27;;;;;;;;;;;30.90;99.90;;;;;;4991571;28;20034;-60
2022/09/13 13:27:54;;;;;;;4.53;1.35;;;31.90;99.90;;;;;;4981850;28;19972;-60
2022/09/13 13:30:41;;;;;;;6.40;1.50;;;32.90;99.90;;;;;;4983338;28;20049;-60
2022/09/13 13:33:17;;;;;;;5.70;1.38;;;33.00;99.90;;;;;;4978422;28;20038;-60
2022/09/13 13:35:46;;;;;;;5.00;1.40;;;33.40;99.90;;;;;;4988249;28;20050;-60
2022/09/13 13:38:39;;;;;;;6.82;1.50;;;33.40;99.90;;;;;;4978540;28;20066;-60
2022/09/13 13:41:40;;;;;;;6.60;1.27;;;33.70;99.90;;;;;;4982953;28;20043;-60
2022/09/13 13:44:19;;;;;;;5.45;1.40;;;35.50;99.90;;;;;;4982196;28;20470;-61
2022/09/13 13:46:49;;;;;;;10.18;1.50;;;35.90;99.90;;;;;;4992946;28;20053;-60
2022/09/13 13:49:30;;;;;;;5.95;1.55;;;37.20;99.90;;;;;;4988276;28;20049;-60
2022/09/13 13:52:21;;;;;;;6.60;1.60;;;37.50;99.90;;;;;;4991334;28;20108;-61
2022/09/13 13:55:24;;;;;;;4.95;1.15;;;37.50;99.90;;;;;;4991514;28;20054;-61